sensor_id;sensor_type;location;lat;lon;timestamp;P1;P2;P0
78063;PMS5003;67429;51.596;-3.264;2023-07-16T00:00:17;9;8;
78063;PMS5003;67429;51.596;-3.264;2023-07-16T00:02:42;11;11;
78063;PMS5003;67429;51.596;-3.264;2023-07-16T00:05:08;10;9;
78063;PMS5003;67429;51.596;-3.264;2023-07-16T00:07:34;7;6;
78063;PMS5003;67429;51.596;-3.264;2023-07-16T00:09:59;11;9;
78063;PMS5003;67429;51.596;-3.264;2023-07-16T00:12:24;8;8;
78063;PMS5003;67429;51.596;-3.264;2023-07-16T00:14:50;11;9;
78063;PMS5003;67429;51.596;-3.264;2023-07-16T00:17:15;10;8;
78063;PMS5003;67429;51.596;-3.264;2023-07-16T00:19:41;4;4;
78063;PMS5003;67429;51.596;-3.264;2023-07-16T00:22:08;6;6;
78063;PMS5003;67429;51.596;-3.264;2023-07-16T00:24:32;10;9;
78063;PMS5003;67429;51.596;-3.264;2023-07-16T00:26:57;8;7;
78063;PMS5003;67429;51.596;-3.264;2023-07-16T00:29:23;7;6;
78063;PMS5003;67429;51.596;-3.264;2023-07-16T00:31:48;5;5;
78063;PMS5003;67429;51.596;-3.264;2023-07-16T00:34:14;7;6;
78063;PMS5003;67429;51.596;-3.264;2023-07-16T00:36:40;9;8;
78063;PMS5003;67429;51.596;-3.264;2023-07-16T00:39:06;9;8;
78063;PMS5003;67429;51.596;-3.264;2023-07-16T00:41:32;9;9;
78063;PMS5003;67429;51.596;-3.264;2023-07-16T00:43:56;8;7;
78063;PMS5003;67429;51.596;-3.264;2023-07-16T00:46:22;7;7;
78063;PMS5003;67429;51.596;-3.264;2023-07-16T00:48:47;8;7;
78063;PMS5003;67429;51.596;-3.264;2023-07-16T00:51:12;6;6;
78063;PMS5003;67429;51.596;-3.264;2023-07-16T00:53:38;8;8;
78063;PMS5003;67429;51.596;-3.264;2023-07-16T00:56:04;7;6;
78063;PMS5003;67429;51.596;-3.264;2023-07-16T00:58:29;6;5;
78063;PMS5003;67429;51.596;-3.264;2023-07-16T01:00:56;10;9;
78063;PMS5003;67429;51.596;-3.264;2023-07-16T01:03:21;7;7;
78063;PMS5003;67429;51.596;-3.264;2023-07-16T01:05:47;7;6;
78063;PMS5003;67429;51.596;-3.264;2023-07-16T01:08:11;8;8;
78063;PMS5003;67429;51.596;-3.264;2023-07-16T01:10:37;10;8;
78063;PMS5003;67429;51.596;-3.264;2023-07-16T01:13:02;8;7;
78063;PMS5003;67429;51.596;-3.264;2023-07-16T01:15:29;13;11;
78063;PMS5003;67429;51.596;-3.264;2023-07-16T01:17:54;8;7;
78063;PMS5003;67429;51.596;-3.264;2023-07-16T01:20:18;6;5;
78063;PMS5003;67429;51.596;-3.264;2023-07-16T01:25:14;5;5;
78063;PMS5003;67429;51.596;-3.264;2023-07-16T01:30:01;7;6;
78063;PMS5003;67429;51.596;-3.264;2023-07-16T01:32:26;8;5;
78063;PMS5003;67429;51.596;-3.264;2023-07-16T01:34:51;6;5;
78063;PMS5003;67429;51.596;-3.264;2023-07-16T01:37:18;7;7;
78063;PMS5003;67429;51.596;-3.264;2023-07-16T01:39:42;6;4;
78063;PMS5003;67429;51.596;-3.264;2023-07-16T01:42:07;8;8;
78063;PMS5003;67429;51.596;-3.264;2023-07-16T01:44:33;6;4;
78063;PMS5003;67429;51.596;-3.264;2023-07-16T01:47:03;6;6;
78063;PMS5003;67429;51.596;-3.264;2023-07-16T01:49:24;6;6;
78063;PMS5003;67429;51.596;-3.264;2023-07-16T01:51:49;7;5;
78063;PMS5003;67429;51.596;-3.264;2023-07-16T01:54:15;9;7;
78063;PMS5003;67429;51.596;-3.264;2023-07-16T01:56:40;6;5;
78063;PMS5003;67429;51.596;-3.264;2023-07-16T01:59:05;5;5;
78063;PMS5003;67429;51.596;-3.264;2023-07-16T02:01:31;5;4;
78063;PMS5003;67429;51.596;-3.264;2023-07-16T02:03:57;6;6;
78063;PMS5003;67429;51.596;-3.264;2023-07-16T02:06:23;5;4;
78063;PMS5003;67429;51.596;-3.264;2023-07-16T02:08:47;6;4;
78063;PMS5003;67429;51.596;-3.264;2023-07-16T02:11:14;7;5;
78063;PMS5003;67429;51.596;-3.264;2023-07-16T02:13:40;5;5;
78063;PMS5003;67429;51.596;-3.264;2023-07-16T02:16:04;6;5;
78063;PMS5003;67429;51.596;-3.264;2023-07-16T02:18:29;5;5;
78063;PMS5003;67429;51.596;-3.264;2023-07-16T02:20:55;5;4;
78063;PMS5003;67429;51.596;-3.264;2023-07-16T02:23:21;4;3;
78063;PMS5003;67429;51.596;-3.264;2023-07-16T02:25:46;7;6;
78063;PMS5003;67429;51.596;-3.264;2023-07-16T02:28:12;7;6;
78063;PMS5003;67429;51.596;-3.264;2023-07-16T02:30:37;6;6;
78063;PMS5003;67429;51.596;-3.264;2023-07-16T02:33:02;6;4;
78063;PMS5003;67429;51.596;-3.264;2023-07-16T02:35:28;6;6;
78063;PMS5003;67429;51.596;-3.264;2023-07-16T02:37:55;6;5;
78063;PMS5003;67429;51.596;-3.264;2023-07-16T02:40:20;7;7;
78063;PMS5003;67429;51.596;-3.264;2023-07-16T02:42:44;7;6;
78063;PMS5003;67429;51.596;-3.264;2023-07-16T02:45:09;5;5;
78063;PMS5003;67429;51.596;-3.264;2023-07-16T02:47:36;7;6;
78063;PMS5003;67429;51.596;-3.264;2023-07-16T02:50:02;8;6;
78063;PMS5003;67429;51.596;-3.264;2023-07-16T02:52:26;5;5;
78063;PMS5003;67429;51.596;-3.264;2023-07-16T02:54:52;5;4;
78063;PMS5003;67429;51.596;-3.264;2023-07-16T02:57:20;6;6;
78063;PMS5003;67429;51.596;-3.264;2023-07-16T02:59:45;5;5;
78063;PMS5003;67429;51.596;-3.264;2023-07-16T03:02:09;7;6;
78063;PMS5003;67429;51.596;-3.264;2023-07-16T03:04:36;5;4;
78063;PMS5003;67429;51.596;-3.264;2023-07-16T03:07:00;6;5;
78063;PMS5003;67429;51.596;-3.264;2023-07-16T03:09:26;8;7;
78063;PMS5003;67429;51.596;-3.264;2023-07-16T03:11:51;5;4;
78063;PMS5003;67429;51.596;-3.264;2023-07-16T03:14:17;7;6;
78063;PMS5003;67429;51.596;-3.264;2023-07-16T03:16:44;8;7;
78063;PMS5003;67429;51.596;-3.264;2023-07-16T03:19:08;9;7;
78063;PMS5003;67429;51.596;-3.264;2023-07-16T03:21:33;6;5;
78063;PMS5003;67429;51.596;-3.264;2023-07-16T03:24:01;7;6;
78063;PMS5003;67429;51.596;-3.264;2023-07-16T03:26:24;5;5;
78063;PMS5003;67429;51.596;-3.264;2023-07-16T03:28:49;4;4;
78063;PMS5003;67429;51.596;-3.264;2023-07-16T03:31:15;6;6;
78063;PMS5003;67429;51.596;-3.264;2023-07-16T03:33:40;6;5;
78063;PMS5003;67429;51.596;-3.264;2023-07-16T03:36:06;7;6;
78063;PMS5003;67429;51.596;-3.264;2023-07-16T03:38:32;6;5;
78063;PMS5003;67429;51.596;-3.264;2023-07-16T03:40:57;7;7;
78063;PMS5003;67429;51.596;-3.264;2023-07-16T03:43:23;8;8;
78063;PMS5003;67429;51.596;-3.264;2023-07-16T03:45:48;8;6;
78063;PMS5003;67429;51.596;-3.264;2023-07-16T03:48:14;5;5;
78063;PMS5003;67429;51.596;-3.264;2023-07-16T03:50:40;9;6;
78063;PMS5003;67429;51.596;-3.264;2023-07-16T03:53:05;9;8;
78063;PMS5003;67429;51.596;-3.264;2023-07-16T03:55:31;9;9;
78063;PMS5003;67429;51.596;-3.264;2023-07-16T03:57:57;8;8;
78063;PMS5003;67429;51.596;-3.264;2023-07-16T04:00:22;9;9;
78063;PMS5003;67429;51.596;-3.264;2023-07-16T04:02:47;9;9;
78063;PMS5003;67429;51.596;-3.264;2023-07-16T04:05:12;9;7;
78063;PMS5003;67429;51.596;-3.264;2023-07-16T04:07:38;7;7;
78063;PMS5003;67429;51.596;-3.264;2023-07-16T04:10:03;7;6;
78063;PMS5003;67429;51.596;-3.264;2023-07-16T04:12:28;8;8;
78063;PMS5003;67429;51.596;-3.264;2023-07-16T04:14:56;7;5;
78063;PMS5003;67429;51.596;-3.264;2023-07-16T04:17:19;7;5;
78063;PMS5003;67429;51.596;-3.264;2023-07-16T04:19:45;5;5;
78063;PMS5003;67429;51.596;-3.264;2023-07-16T04:22:11;6;5;
78063;PMS5003;67429;51.596;-3.264;2023-07-16T04:24:37;4;4;
78063;PMS5003;67429;51.596;-3.264;2023-07-16T04:27:02;4;4;
78063;PMS5003;67429;51.596;-3.264;2023-07-16T04:29:27;6;5;
78063;PMS5003;67429;51.596;-3.264;2023-07-16T04:31:53;6;6;
78063;PMS5003;67429;51.596;-3.264;2023-07-16T04:34:18;7;6;
78063;PMS5003;67429;51.596;-3.264;2023-07-16T04:36:44;5;5;
78063;PMS5003;67429;51.596;-3.264;2023-07-16T04:39:10;9;7;
78063;PMS5003;67429;51.596;-3.264;2023-07-16T04:41:36;7;7;
78063;PMS5003;67429;51.596;-3.264;2023-07-16T04:44:02;4;4;
78063;PMS5003;67429;51.596;-3.264;2023-07-16T04:46:27;5;4;
78063;PMS5003;67429;51.596;-3.264;2023-07-16T04:48:53;7;5;
78063;PMS5003;67429;51.596;-3.264;2023-07-16T04:51:18;4;4;
78063;PMS5003;67429;51.596;-3.264;2023-07-16T04:53:43;6;6;
78063;PMS5003;67429;51.596;-3.264;2023-07-16T04:56:11;5;5;
78063;PMS5003;67429;51.596;-3.264;2023-07-16T04:58:34;10;7;
78063;PMS5003;67429;51.596;-3.264;2023-07-16T05:01:01;5;5;
78063;PMS5003;67429;51.596;-3.264;2023-07-16T05:03:27;11;6;
78063;PMS5003;67429;51.596;-3.264;2023-07-16T05:05:51;10;10;
78063;PMS5003;67429;51.596;-3.264;2023-07-16T05:08:18;10;9;
78063;PMS5003;67429;51.596;-3.264;2023-07-16T05:10:42;9;8;
78063;PMS5003;67429;51.596;-3.264;2023-07-16T05:13:08;10;10;
78063;PMS5003;67429;51.596;-3.264;2023-07-16T05:15:33;10;10;
78063;PMS5003;67429;51.596;-3.264;2023-07-16T05:17:59;11;10;
78063;PMS5003;67429;51.596;-3.264;2023-07-16T05:20:25;10;8;
78063;PMS5003;67429;51.596;-3.264;2023-07-16T05:22:52;10;9;
78063;PMS5003;67429;51.596;-3.264;2023-07-16T05:25:17;12;12;
78063;PMS5003;67429;51.596;-3.264;2023-07-16T05:27:42;10;9;
78063;PMS5003;67429;51.596;-3.264;2023-07-16T05:30:07;8;8;
78063;PMS5003;67429;51.596;-3.264;2023-07-16T05:32:32;12;11;
78063;PMS5003;67429;51.596;-3.264;2023-07-16T05:34:58;10;9;
78063;PMS5003;67429;51.596;-3.264;2023-07-16T05:37:24;7;7;
78063;PMS5003;67429;51.596;-3.264;2023-07-16T05:39:49;10;8;
78063;PMS5003;67429;51.596;-3.264;2023-07-16T05:42:14;8;8;
78063;PMS5003;67429;51.596;-3.264;2023-07-16T05:44:40;8;8;
78063;PMS5003;67429;51.596;-3.264;2023-07-16T05:47:05;9;8;
78063;PMS5003;67429;51.596;-3.264;2023-07-16T05:49:31;11;10;
78063;PMS5003;67429;51.596;-3.264;2023-07-16T05:51:57;14;13;
78063;PMS5003;67429;51.596;-3.264;2023-07-16T05:54:22;11;8;
78063;PMS5003;67429;51.596;-3.264;2023-07-16T05:56:47;12;10;
78063;PMS5003;67429;51.596;-3.264;2023-07-16T05:59:14;9;8;
78063;PMS5003;67429;51.596;-3.264;2023-07-16T06:01:38;11;8;
78063;PMS5003;67429;51.596;-3.264;2023-07-16T06:04:04;9;9;
78063;PMS5003;67429;51.596;-3.264;2023-07-16T06:06:30;8;8;
78063;PMS5003;67429;51.596;-3.264;2023-07-16T06:08:55;9;8;
78063;PMS5003;67429;51.596;-3.264;2023-07-16T06:11:21;9;8;
78063;PMS5003;67429;51.596;-3.264;2023-07-16T06:13:45;10;9;
78063;PMS5003;67429;51.596;-3.264;2023-07-16T06:16:11;9;8;
78063;PMS5003;67429;51.596;-3.264;2023-07-16T06:18:37;10;8;
78063;PMS5003;67429;51.596;-3.264;2023-07-16T06:21:02;8;8;
78063;PMS5003;67429;51.596;-3.264;2023-07-16T06:23:28;10;10;
78063;PMS5003;67429;51.596;-3.264;2023-07-16T06:25:54;8;8;
78063;PMS5003;67429;51.596;-3.264;2023-07-16T06:28:18;8;8;
78063;PMS5003;67429;51.596;-3.264;2023-07-16T06:30:45;5;5;
78063;PMS5003;67429;51.596;-3.264;2023-07-16T06:33:10;5;4;
78063;PMS5003;67429;51.596;-3.264;2023-07-16T06:35:35;5;3;
78063;PMS5003;67429;51.596;-3.264;2023-07-16T06:38:01;5;5;
78063;PMS5003;67429;51.596;-3.264;2023-07-16T06:40:28;3;3;
78063;PMS5003;67429;51.596;-3.264;2023-07-16T06:42:52;3;3;
78063;PMS5003;67429;51.596;-3.264;2023-07-16T06:45:17;4;3;
78063;PMS5003;67429;51.596;-3.264;2023-07-16T06:47:44;3;3;
78063;PMS5003;67429;51.596;-3.264;2023-07-16T06:50:09;3;3;
78063;PMS5003;67429;51.596;-3.264;2023-07-16T06:52:34;3;3;
78063;PMS5003;67429;51.596;-3.264;2023-07-16T06:55:00;2;2;
78063;PMS5003;67429;51.596;-3.264;2023-07-16T06:57:25;1;1;
78063;PMS5003;67429;51.596;-3.264;2023-07-16T06:59:51;2;2;
78063;PMS5003;67429;51.596;-3.264;2023-07-16T07:02:17;3;3;
78063;PMS5003;67429;51.596;-3.264;2023-07-16T07:04:43;4;2;
78063;PMS5003;67429;51.596;-3.264;2023-07-16T07:07:08;2;2;
78063;PMS5003;67429;51.596;-3.264;2023-07-16T07:09:33;2;2;
78063;PMS5003;67429;51.596;-3.264;2023-07-16T07:12:00;2;2;
78063;PMS5003;67429;51.596;-3.264;2023-07-16T07:14:24;4;4;
78063;PMS5003;67429;51.596;-3.264;2023-07-16T07:16:49;4;4;
78063;PMS5003;67429;51.596;-3.264;2023-07-16T07:19:15;4;4;
78063;PMS5003;67429;51.596;-3.264;2023-07-16T07:21:42;6;6;
78063;PMS5003;67429;51.596;-3.264;2023-07-16T07:24:08;7;7;
78063;PMS5003;67429;51.596;-3.264;2023-07-16T07:26:33;7;6;
78063;PMS5003;67429;51.596;-3.264;2023-07-16T07:28:57;8;8;
78063;PMS5003;67429;51.596;-3.264;2023-07-16T07:31:23;12;12;
78063;PMS5003;67429;51.596;-3.264;2023-07-16T07:33:48;10;10;
78063;PMS5003;67429;51.596;-3.264;2023-07-16T07:36:13;10;10;
78063;PMS5003;67429;51.596;-3.264;2023-07-16T07:38:39;9;9;
78063;PMS5003;67429;51.596;-3.264;2023-07-16T07:41:04;10;7;
78063;PMS5003;67429;51.596;-3.264;2023-07-16T07:43:30;7;7;
78063;PMS5003;67429;51.596;-3.264;2023-07-16T07:45:55;6;6;
78063;PMS5003;67429;51.596;-3.264;2023-07-16T07:48:22;5;5;
78063;PMS5003;67429;51.596;-3.264;2023-07-16T07:50:46;6;6;
78063;PMS5003;67429;51.596;-3.264;2023-07-16T07:53:13;6;6;
78063;PMS5003;67429;51.596;-3.264;2023-07-16T07:55:38;5;5;
78063;PMS5003;67429;51.596;-3.264;2023-07-16T07:58:03;6;6;
78063;PMS5003;67429;51.596;-3.264;2023-07-16T08:00:30;5;5;
78063;PMS5003;67429;51.596;-3.264;2023-07-16T08:02:54;7;7;
78063;PMS5003;67429;51.596;-3.264;2023-07-16T08:05:19;10;9;
78063;PMS5003;67429;51.596;-3.264;2023-07-16T08:07:45;10;10;
78063;PMS5003;67429;51.596;-3.264;2023-07-16T08:10:10;10;10;
78063;PMS5003;67429;51.596;-3.264;2023-07-16T08:12:38;11;11;
78063;PMS5003;67429;51.596;-3.264;2023-07-16T08:15:02;11;11;
78063;PMS5003;67429;51.596;-3.264;2023-07-16T08:17:27;13;13;
78063;PMS5003;67429;51.596;-3.264;2023-07-16T08:19:52;6;6;
78063;PMS5003;67429;51.596;-3.264;2023-07-16T08:22:19;8;8;
78063;PMS5003;67429;51.596;-3.264;2023-07-16T08:24:43;9;9;
78063;PMS5003;67429;51.596;-3.264;2023-07-16T08:27:09;7;7;
78063;PMS5003;67429;51.596;-3.264;2023-07-16T08:29:35;6;5;
78063;PMS5003;67429;51.596;-3.264;2023-07-16T08:32:00;5;5;
78063;PMS5003;67429;51.596;-3.264;2023-07-16T08:34:26;5;3;
78063;PMS5003;67429;51.596;-3.264;2023-07-16T08:36:52;3;3;
78063;PMS5003;67429;51.596;-3.264;2023-07-16T08:39:17;1;1;
78063;PMS5003;67429;51.596;-3.264;2023-07-16T08:41:42;2;2;
78063;PMS5003;67429;51.596;-3.264;2023-07-16T08:44:08;2;2;
78063;PMS5003;67429;51.596;-3.264;2023-07-16T08:46:33;0;0;
78063;PMS5003;67429;51.596;-3.264;2023-07-16T08:48:58;1;1;
78063;PMS5003;67429;51.596;-3.264;2023-07-16T08:51:25;3;3;
78063;PMS5003;67429;51.596;-3.264;2023-07-16T08:53:50;2;2;
78063;PMS5003;67429;51.596;-3.264;2023-07-16T08:56:15;3;3;
78063;PMS5003;67429;51.596;-3.264;2023-07-16T08:58:41;4;4;
78063;PMS5003;67429;51.596;-3.264;2023-07-16T09:01:06;5;4;
78063;PMS5003;67429;51.596;-3.264;2023-07-16T09:03:31;6;6;
78063;PMS5003;67429;51.596;-3.264;2023-07-16T09:05:57;6;6;
78063;PMS5003;67429;51.596;-3.264;2023-07-16T09:08:22;9;9;
78063;PMS5003;67429;51.596;-3.264;2023-07-16T09:13:18;9;9;
78063;PMS5003;67429;51.596;-3.264;2023-07-16T09:15:40;6;6;
78063;PMS5003;67429;51.596;-3.264;2023-07-16T09:18:05;9;9;
78063;PMS5003;67429;51.596;-3.264;2023-07-16T09:20:30;8;8;
78063;PMS5003;67429;51.596;-3.264;2023-07-16T09:22:56;8;7;
78063;PMS5003;67429;51.596;-3.264;2023-07-16T09:25:25;6;6;
78063;PMS5003;67429;51.596;-3.264;2023-07-16T09:27:48;8;7;
78063;PMS5003;67429;51.596;-3.264;2023-07-16T09:30:14;7;7;
78063;PMS5003;67429;51.596;-3.264;2023-07-16T09:32:38;7;7;
78063;PMS5003;67429;51.596;-3.264;2023-07-16T09:35:06;7;7;
78063;PMS5003;67429;51.596;-3.264;2023-07-16T09:37:28;6;5;
78063;PMS5003;67429;51.596;-3.264;2023-07-16T09:39:54;4;4;
78063;PMS5003;67429;51.596;-3.264;2023-07-16T09:42:19;3;3;
78063;PMS5003;67429;51.596;-3.264;2023-07-16T09:44:45;4;3;
78063;PMS5003;67429;51.596;-3.264;2023-07-16T09:47:10;2;2;
78063;PMS5003;67429;51.596;-3.264;2023-07-16T09:49:37;3;3;
78063;PMS5003;67429;51.596;-3.264;2023-07-16T09:52:02;4;4;
78063;PMS5003;67429;51.596;-3.264;2023-07-16T09:54:27;2;2;
78063;PMS5003;67429;51.596;-3.264;2023-07-16T09:56:53;3;3;
78063;PMS5003;67429;51.596;-3.264;2023-07-16T09:59:20;3;3;
78063;PMS5003;67429;51.596;-3.264;2023-07-16T10:01:43;3;3;
78063;PMS5003;67429;51.596;-3.264;2023-07-16T10:04:11;3;3;
78063;PMS5003;67429;51.596;-3.264;2023-07-16T10:06:34;4;4;
78063;PMS5003;67429;51.596;-3.264;2023-07-16T10:09:00;2;2;
78063;PMS5003;67429;51.596;-3.264;2023-07-16T10:11:25;2;2;
78063;PMS5003;67429;51.596;-3.264;2023-07-16T10:13:50;2;1;
78063;PMS5003;67429;51.596;-3.264;2023-07-16T10:16:20;2;2;
78063;PMS5003;67429;51.596;-3.264;2023-07-16T10:18:49;2;2;
78063;PMS5003;67429;51.596;-3.264;2023-07-16T10:21:07;0;0;
78063;PMS5003;67429;51.596;-3.264;2023-07-16T10:23:38;7;6;
78063;PMS5003;67429;51.596;-3.264;2023-07-16T10:25:58;3;3;
78063;PMS5003;67429;51.596;-3.264;2023-07-16T10:28:23;1;1;
78063;PMS5003;67429;51.596;-3.264;2023-07-16T10:30:49;3;3;
78063;PMS5003;67429;51.596;-3.264;2023-07-16T10:33:14;3;3;
78063;PMS5003;67429;51.596;-3.264;2023-07-16T10:35:40;0;0;
78063;PMS5003;67429;51.596;-3.264;2023-07-16T10:38:05;5;5;
78063;PMS5003;67429;51.596;-3.264;2023-07-16T10:40:30;2;2;
78063;PMS5003;67429;51.596;-3.264;2023-07-16T10:42:55;3;3;
78063;PMS5003;67429;51.596;-3.264;2023-07-16T10:45:20;2;2;
78063;PMS5003;67429;51.596;-3.264;2023-07-16T10:47:51;2;2;
78063;PMS5003;67429;51.596;-3.264;2023-07-16T10:50:11;3;3;
78063;PMS5003;67429;51.596;-3.264;2023-07-16T10:52:37;2;2;
78063;PMS5003;67429;51.596;-3.264;2023-07-16T10:55:04;6;5;
78063;PMS5003;67429;51.596;-3.264;2023-07-16T10:57:28;3;1;
78063;PMS5003;67429;51.596;-3.264;2023-07-16T10:59:55;4;4;
78063;PMS5003;67429;51.596;-3.264;2023-07-16T11:02:20;2;2;
78063;PMS5003;67429;51.596;-3.264;2023-07-16T11:04:45;7;6;
78063;PMS5003;67429;51.596;-3.264;2023-07-16T11:07:10;2;2;
78063;PMS5003;67429;51.596;-3.264;2023-07-16T11:12:05;5;4;
78063;PMS5003;67429;51.596;-3.264;2023-07-16T11:14:27;4;4;
78063;PMS5003;67429;51.596;-3.264;2023-07-16T11:16:52;2;2;
78063;PMS5003;67429;51.596;-3.264;2023-07-16T11:19:19;2;2;
78063;PMS5003;67429;51.596;-3.264;2023-07-16T11:21:42;4;4;
78063;PMS5003;67429;51.596;-3.264;2023-07-16T11:24:08;3;2;
78063;PMS5003;67429;51.596;-3.264;2023-07-16T11:26:33;2;2;
78063;PMS5003;67429;51.596;-3.264;2023-07-16T11:28:58;3;2;
78063;PMS5003;67429;51.596;-3.264;2023-07-16T11:31:24;2;2;
78063;PMS5003;67429;51.596;-3.264;2023-07-16T11:33:50;3;2;
78063;PMS5003;67429;51.596;-3.264;2023-07-16T11:36:16;2;2;
78063;PMS5003;67429;51.596;-3.264;2023-07-16T11:38:40;1;1;
78063;PMS5003;67429;51.596;-3.264;2023-07-16T11:41:05;2;2;
78063;PMS5003;67429;51.596;-3.264;2023-07-16T11:43:34;3;2;
78063;PMS5003;67429;51.596;-3.264;2023-07-16T11:45:57;2;2;
78063;PMS5003;67429;51.596;-3.264;2023-07-16T11:48:23;3;3;
78063;PMS5003;67429;51.596;-3.264;2023-07-16T11:50:48;4;4;
78063;PMS5003;67429;51.596;-3.264;2023-07-16T11:53:13;5;5;
78063;PMS5003;67429;51.596;-3.264;2023-07-16T11:55:38;4;3;
78063;PMS5003;67429;51.596;-3.264;2023-07-16T11:58:03;2;2;
78063;PMS5003;67429;51.596;-3.264;2023-07-16T12:00:29;3;3;
78063;PMS5003;67429;51.596;-3.264;2023-07-16T12:02:54;3;3;
78063;PMS5003;67429;51.596;-3.264;2023-07-16T12:05:21;4;3;
78063;PMS5003;67429;51.596;-3.264;2023-07-16T12:07:47;3;2;
78063;PMS5003;67429;51.596;-3.264;2023-07-16T12:10:13;2;2;
78063;PMS5003;67429;51.596;-3.264;2023-07-16T12:12:36;3;2;
78063;PMS5003;67429;51.596;-3.264;2023-07-16T12:15:01;3;2;
78063;PMS5003;67429;51.596;-3.264;2023-07-16T12:17:27;1;1;
78063;PMS5003;67429;51.596;-3.264;2023-07-16T12:19:52;1;1;
78063;PMS5003;67429;51.596;-3.264;2023-07-16T12:22:18;1;1;
78063;PMS5003;67429;51.596;-3.264;2023-07-16T12:24:45;5;5;
78063;PMS5003;67429;51.596;-3.264;2023-07-16T12:27:08;1;1;
78063;PMS5003;67429;51.596;-3.264;2023-07-16T12:29:33;3;3;
78063;PMS5003;67429;51.596;-3.264;2023-07-16T12:31:59;2;2;
78063;PMS5003;67429;51.596;-3.264;2023-07-16T12:34:24;2;2;
78063;PMS5003;67429;51.596;-3.264;2023-07-16T12:36:49;1;1;
78063;PMS5003;67429;51.596;-3.264;2023-07-16T12:39:16;2;2;
78063;PMS5003;67429;51.596;-3.264;2023-07-16T12:41:41;4;4;
78063;PMS5003;67429;51.596;-3.264;2023-07-16T12:44:06;1;1;
78063;PMS5003;67429;51.596;-3.264;2023-07-16T12:46:31;2;2;
78063;PMS5003;67429;51.596;-3.264;2023-07-16T12:48:57;2;2;
78063;PMS5003;67429;51.596;-3.264;2023-07-16T12:51:22;2;2;
78063;PMS5003;67429;51.596;-3.264;2023-07-16T12:53:47;4;3;
78063;PMS5003;67429;51.596;-3.264;2023-07-16T12:56:13;6;5;
78063;PMS5003;67429;51.596;-3.264;2023-07-16T12:58:39;4;4;
78063;PMS5003;67429;51.596;-3.264;2023-07-16T13:01:05;4;4;
78063;PMS5003;67429;51.596;-3.264;2023-07-16T13:03:30;3;3;
78063;PMS5003;67429;51.596;-3.264;2023-07-16T13:05:54;3;3;
78063;PMS5003;67429;51.596;-3.264;2023-07-16T13:08:20;3;3;
78063;PMS5003;67429;51.596;-3.264;2023-07-16T13:10:45;3;3;
78063;PMS5003;67429;51.596;-3.264;2023-07-16T13:13:11;3;3;
78063;PMS5003;67429;51.596;-3.264;2023-07-16T13:15:36;3;2;
78063;PMS5003;67429;51.596;-3.264;2023-07-16T13:18:01;3;2;
78063;PMS5003;67429;51.596;-3.264;2023-07-16T13:20:27;4;3;
78063;PMS5003;67429;51.596;-3.264;2023-07-16T13:22:52;3;3;
78063;PMS5003;67429;51.596;-3.264;2023-07-16T13:25:18;2;2;
78063;PMS5003;67429;51.596;-3.264;2023-07-16T13:27:43;1;1;
78063;PMS5003;67429;51.596;-3.264;2023-07-16T13:30:09;3;3;
78063;PMS5003;67429;51.596;-3.264;2023-07-16T13:32:34;4;3;
78063;PMS5003;67429;51.596;-3.264;2023-07-16T13:35:01;3;3;
78063;PMS5003;67429;51.596;-3.264;2023-07-16T13:37:26;3;3;
78063;PMS5003;67429;51.596;-3.264;2023-07-16T13:39:51;5;4;
78063;PMS5003;67429;51.596;-3.264;2023-07-16T13:42:16;3;2;
78063;PMS5003;67429;51.596;-3.264;2023-07-16T13:44:42;4;4;
78063;PMS5003;67429;51.596;-3.264;2023-07-16T13:47:07;3;3;
78063;PMS5003;67429;51.596;-3.264;2023-07-16T13:49:32;3;3;
78063;PMS5003;67429;51.596;-3.264;2023-07-16T13:51:58;3;3;
78063;PMS5003;67429;51.596;-3.264;2023-07-16T13:54:25;2;2;
78063;PMS5003;67429;51.596;-3.264;2023-07-16T13:56:49;2;2;
78063;PMS5003;67429;51.596;-3.264;2023-07-16T13:59:14;3;2;
78063;PMS5003;67429;51.596;-3.264;2023-07-16T14:01:40;2;2;
78063;PMS5003;67429;51.596;-3.264;2023-07-16T14:04:05;2;1;
78063;PMS5003;67429;51.596;-3.264;2023-07-16T14:06:30;1;1;
78063;PMS5003;67429;51.596;-3.264;2023-07-16T14:08:56;1;1;
78063;PMS5003;67429;51.596;-3.264;2023-07-16T14:11:23;1;1;
78063;PMS5003;67429;51.596;-3.264;2023-07-16T14:13:48;1;0;
78063;PMS5003;67429;51.596;-3.264;2023-07-16T14:16:12;1;1;
78063;PMS5003;67429;51.596;-3.264;2023-07-16T14:18:37;0;0;
78063;PMS5003;67429;51.596;-3.264;2023-07-16T14:21:03;1;1;
78063;PMS5003;67429;51.596;-3.264;2023-07-16T14:23:29;4;3;
78063;PMS5003;67429;51.596;-3.264;2023-07-16T14:25:55;3;2;
78063;PMS5003;67429;51.596;-3.264;2023-07-16T14:28:19;3;3;
78063;PMS5003;67429;51.596;-3.264;2023-07-16T14:30:46;1;1;
78063;PMS5003;67429;51.596;-3.264;2023-07-16T14:33:10;1;1;
78063;PMS5003;67429;51.596;-3.264;2023-07-16T14:35:35;8;7;
78063;PMS5003;67429;51.596;-3.264;2023-07-16T14:38:00;16;16;
78063;PMS5003;67429;51.596;-3.264;2023-07-16T14:40:26;5;4;
78063;PMS5003;67429;51.596;-3.264;2023-07-16T14:42:52;13;13;
78063;PMS5003;67429;51.596;-3.264;2023-07-16T14:45:17;5;4;
78063;PMS5003;67429;51.596;-3.264;2023-07-16T14:47:42;5;4;
78063;PMS5003;67429;51.596;-3.264;2023-07-16T14:50:07;4;4;
78063;PMS5003;67429;51.596;-3.264;2023-07-16T14:52:32;5;5;
78063;PMS5003;67429;51.596;-3.264;2023-07-16T14:54:58;3;3;
78063;PMS5003;67429;51.596;-3.264;2023-07-16T14:57:23;4;4;
78063;PMS5003;67429;51.596;-3.264;2023-07-16T14:59:48;5;5;
78063;PMS5003;67429;51.596;-3.264;2023-07-16T15:02:14;4;4;
78063;PMS5003;67429;51.596;-3.264;2023-07-16T15:04:39;4;4;
78063;PMS5003;67429;51.596;-3.264;2023-07-16T15:07:05;4;4;
78063;PMS5003;67429;51.596;-3.264;2023-07-16T15:09:30;6;6;
78063;PMS5003;67429;51.596;-3.264;2023-07-16T15:11:55;4;4;
78063;PMS5003;67429;51.596;-3.264;2023-07-16T15:14:23;4;3;
78063;PMS5003;67429;51.596;-3.264;2023-07-16T15:16:47;6;6;
78063;PMS5003;67429;51.596;-3.264;2023-07-16T15:19:12;7;5;
78063;PMS5003;67429;51.596;-3.264;2023-07-16T15:21:37;5;4;
78063;PMS5003;67429;51.596;-3.264;2023-07-16T15:24:03;2;2;
78063;PMS5003;67429;51.596;-3.264;2023-07-16T15:26:30;4;3;
78063;PMS5003;67429;51.596;-3.264;2023-07-16T15:28:53;3;2;
78063;PMS5003;67429;51.596;-3.264;2023-07-16T15:31:19;4;4;
78063;PMS5003;67429;51.596;-3.264;2023-07-16T15:33:44;3;2;
78063;PMS5003;67429;51.596;-3.264;2023-07-16T15:36:10;2;2;
78063;PMS5003;67429;51.596;-3.264;2023-07-16T15:38:36;3;3;
78063;PMS5003;67429;51.596;-3.264;2023-07-16T15:41:02;2;2;
78063;PMS5003;67429;51.596;-3.264;2023-07-16T15:43:26;3;3;
78063;PMS5003;67429;51.596;-3.264;2023-07-16T15:45:52;3;3;
78063;PMS5003;67429;51.596;-3.264;2023-07-16T15:48:17;2;2;
78063;PMS5003;67429;51.596;-3.264;2023-07-16T15:50:42;3;3;
78063;PMS5003;67429;51.596;-3.264;2023-07-16T15:53:10;3;3;
78063;PMS5003;67429;51.596;-3.264;2023-07-16T15:55:33;3;3;
78063;PMS5003;67429;51.596;-3.264;2023-07-16T15:58:00;4;3;
78063;PMS5003;67429;51.596;-3.264;2023-07-16T16:00:24;3;3;
78063;PMS5003;67429;51.596;-3.264;2023-07-16T16:02:50;3;3;
78063;PMS5003;67429;51.596;-3.264;2023-07-16T16:05:15;3;3;
78063;PMS5003;67429;51.596;-3.264;2023-07-16T16:07:42;5;4;
78063;PMS5003;67429;51.596;-3.264;2023-07-16T16:10:06;4;4;
78063;PMS5003;67429;51.596;-3.264;2023-07-16T16:12:32;4;4;
78063;PMS5003;67429;51.596;-3.264;2023-07-16T16:14:57;4;4;
78063;PMS5003;67429;51.596;-3.264;2023-07-16T16:17:23;5;5;
78063;PMS5003;67429;51.596;-3.264;2023-07-16T16:19:48;4;3;
78063;PMS5003;67429;51.596;-3.264;2023-07-16T16:22:14;6;4;
78063;PMS5003;67429;51.596;-3.264;2023-07-16T16:24:39;5;5;
78063;PMS5003;67429;51.596;-3.264;2023-07-16T16:27:05;5;5;